Time,TemperatureF,DewpointF,PressureIn,WindDirection,WindDirectionDegrees,WindSpeedMPH,WindSpeedGustMPH,Humidity,HourlyPrecipIn,Conditions,Clouds,dailyrainin,SoftwareType,DateUTC
2013-06-03 00:03:00,47.1,39.9,30.43,SE,135,0.0,0.0,76,0.00,,,0.00,WeatherCatV1.10B1784,2013-06-02 23:03:00,
2013-06-03 00:13:00,46.6,39.8,30.42,SE,135,0.0,0.0,77,0.00,,,0.00,WeatherCatV1.10B1784,2013-06-02 23:13:00,
2013-06-03 00:23:00,46.2,39.6,30.43,SE,135,0.0,0.0,78,0.00,,,0.00,WeatherCatV1.10B1784,2013-06-02 23:23:00,
2013-06-03 00:33:00,45.7,39.2,30.43,SE,135,0.0,0.0,78,0.00,,,0.00,WeatherCatV1.10B1784,2013-06-02 23:33:00,
2013-06-03 00:43:00,45.1,39.0,30.43,SE,135,0.0,0.0,79,0.00,,,0.00,WeatherCatV1.10B1784,2013-06-02 23:43:00,
2013-06-03 00:53:00,44.8,39.0,30.43,SE,135,0.0,0.0,80,0.00,,,0.00,WeatherCatV1.10B1784,2013-06-02 23:53:00,
2013-06-03 01:03:00,44.4,38.7,30.43,SE,135,0.0,0.0,80,0.00,,,0.00,WeatherCatV1.10B1784,2013-06-03 00:03:00,
2013-06-03 01:13:00,44.2,38.8,30.44,SE,135,0.0,0.0,81,0.00,,,0.00,WeatherCatV1.10B1784,2013-06-03 00:13:00,
2013-06-03 01:23:00,44.1,38.9,30.44,SE,135,0.0,0.0,82,0.00,,,0.00,WeatherCatV1.10B1784,2013-06-03 00:23:00,
2013-06-03 01:33:00,43.7,38.6,30.44,SE,135,0.0,0.0,82,0.00,,,0.00,WeatherCatV1.10B1784,2013-06-03 00:33:00,
2013-06-03 01:43:00,43.3,38.2,30.44,SE,135,0.0,0.0,82,0.00,,,0.00,WeatherCatV1.10B1784,2013-06-03 00:43:00,
2013-06-03 01:53:00,42.8,37.7,30.44,SE,135,0.0,0.0,82,0.00,,,0.00,WeatherCatV1.10B1784,2013-06-03 00:53:00,
2013-06-03 02:03:00,42.4,37.9,30.44,SE,135,0.0,0.0,84,0.00,,,0.00,WeatherCatV1.10B1784,2013-06-03 01:03:00,
2013-06-03 02:13:00,42.1,37.5,30.44,SE,135,0.0,0.0,84,0.00,,,0.00,WeatherCatV1.10B1784,2013-06-03 01:13:00,
2013-06-03 02:23:00,41.7,37.5,30.44,SE,135,0.0,0.0,85,0.00,,,0.00,WeatherCatV1.10B1784,2013-06-03 01:23:00,
2013-06-03 02:33:00,41.5,37.3,30.44,SE,135,0.0,0.0,85,0.00,,,0.00,WeatherCatV1.10B1784,2013-06-03 01:33:00,
2013-06-03 02:43:00,41.2,37.3,30.44,SE,135,0.0,0.0,86,0.00,,,0.00,WeatherCatV1.10B1784,2013-06-03 01:43:00,
2013-06-03 02:53:00,41.2,37.3,30.44,SE,135,0.0,0.0,86,0.00,,,0.00,WeatherCatV1.10B1784,2013-06-03 01:53:00,
2013-06-03 03:03:00,41.2,37.4,30.44,SE,135,0.0,0.0,87,0.00,,,0.00,WeatherCatV1.10B1784,2013-06-03 02:03:00,
2013-06-03 03:13:00,40.8,37.2,30.44,SE,135,0.0,0.0,87,0.00,,,0.00,WeatherCatV1.10B1784,2013-06-03 02:13:00,
2013-06-03 03:23:00,40.5,36.8,30.44,SE,135,0.0,0.0,87,0.00,,,0.00,WeatherCatV1.10B1784,2013-06-03 02:23:00,
2013-06-03 03:33:00,40.1,36.5,30.44,SE,135,0.0,0.0,87,0.00,,,0.00,WeatherCatV1.10B1784,2013-06-03 02:33:00,
2013-06-03 03:43:00,39.9,36.6,30.44,SE,135,0.0,0.0,88,0.00,,,0.00,WeatherCatV1.10B1784,2013-06-03 02:43:00,
2013-06-03 03:53:00,39.7,36.4,30.44,SE,135,0.0,0.0,88,0.00,,,0.00,WeatherCatV1.10B1784,2013-06-03 02:53:00,
2013-06-03 04:03:00,39.6,36.3,30.44,SE,135,0.0,0.0,88,0.00,,,0.00,WeatherCatV1.10B1784,2013-06-03 03:03:00,
2013-06-03 04:13:00,39.4,36.1,30.44,SE,135,0.0,0.0,88,0.00,,,0.00,WeatherCatV1.10B1784,2013-06-03 03:13:00,
2013-06-03 04:23:00,39.2,35.9,30.44,SE,135,0.0,0.0,88,0.00,,,0.00,WeatherCatV1.10B1784,2013-06-03 03:23:00,
2013-06-03 04:33:00,39.0,35.7,30.45,SE,135,0.0,0.0,88,0.00,,,0.00,WeatherCatV1.10B1784,2013-06-03 03:33:00,
2013-06-03 04:43:00,39.0,36.0,30.44,SE,135,0.0,0.0,89,0.00,,,0.00,WeatherCatV1.10B1784,2013-06-03 03:43:00,
2013-06-03 04:53:00,39.0,36.0,30.45,SE,135,0.0,0.0,89,0.00,,,0.00,WeatherCatV1.10B1784,2013-06-03 03:53:00,
2013-06-03 05:03:00,39.2,36.2,30.45,SE,135,0.0,0.0,89,0.00,,,0.00,WeatherCatV1.10B1784,2013-06-03 04:03:00,
2013-06-03 05:13:00,39.4,36.7,30.46,SE,135,0.0,0.0,90,0.00,,,0.00,WeatherCatV1.10B1784,2013-06-03 04:13:00,
2013-06-03 05:23:00,40.3,37.6,30.46,SE,135,0.0,0.0,90,0.00,,,0.00,WeatherCatV1.10B1784,2013-06-03 04:23:00,
2013-06-03 05:33:00,41.2,38.5,30.46,SE,135,0.0,0.0,90,0.00,,,0.00,WeatherCatV1.10B1784,2013-06-03 04:33:00,
2013-06-03 05:43:00,41.9,39.0,30.46,SE,135,0.0,0.0,90,0.00,,,0.00,WeatherCatV1.10B1784,2013-06-03 04:43:00,
2013-06-03 05:53:00,42.1,39.1,30.46,SE,135,0.0,0.0,89,0.00,,,0.00,WeatherCatV1.10B1784,2013-06-03 04:53:00,
2013-06-03 06:03:00,42.6,39.6,30.47,SE,135,0.0,0.0,89,0.00,,,0.00,WeatherCatV1.10B1784,2013-06-03 05:03:00,
2013-06-03 06:13:00,43.0,40.0,30.47,SE,135,0.0,0.0,89,0.00,,,0.00,WeatherCatV1.10B1784,2013-06-03 05:13:00,
2013-06-03 06:23:00,43.9,40.9,30.47,SE,135,0.0,0.9,89,0.00,,,0.00,WeatherCatV1.10B1784,2013-06-03 05:23:00,
2013-06-03 06:33:00,44.6,41.8,30.47,SE,135,0.0,0.0,89,0.00,,,0.00,WeatherCatV1.10B1784,2013-06-03 05:33:00,
2013-06-03 06:43:00,45.7,42.4,30.47,SE,135,0.0,0.0,88,0.00,,,0.00,WeatherCatV1.10B1784,2013-06-03 05:43:00,
2013-06-03 06:53:00,46.6,42.9,30.48,SE,135,0.0,0.0,87,0.00,,,0.00,WeatherCatV1.10B1784,2013-06-03 05:53:00,
2013-06-03 07:03:00,46.9,43.0,30.48,SE,135,0.0,0.0,86,0.00,,,0.00,WeatherCatV1.10B1784,2013-06-03 06:03:00,
2013-06-03 07:13:00,48.0,44.0,30.48,SE,135,0.0,0.9,86,0.00,,,0.00,WeatherCatV1.10B1784,2013-06-03 06:13:00,
2013-06-03 07:23:00,49.3,44.6,30.48,SE,135,0.0,0.0,84,0.00,,,0.00,WeatherCatV1.10B1784,2013-06-03 06:23:00,
2013-06-03 07:33:00,50.2,44.9,30.48,SE,135,0.0,0.0,82,0.00,,,0.00,WeatherCatV1.10B1784,2013-06-03 06:33:00,
2013-06-03 07:43:00,51.1,45.4,30.48,SE,135,0.0,0.0,81,0.00,,,0.00,WeatherCatV1.10B1784,2013-06-03 06:43:00,
2013-06-03 07:53:00,51.4,45.2,30.48,ESE,112,0.0,1.3,79,0.00,,,0.00,WeatherCatV1.10B1784,2013-06-03 06:53:00,
2013-06-03 08:03:00,51.3,45.0,30.48,ESE,112,0.0,0.0,79,0.00,,,0.00,WeatherCatV1.10B1784,2013-06-03 07:03:00,
2013-06-03 08:13:00,51.6,45.3,30.48,ESE,112,0.0,0.0,79,0.00,,,0.00,WeatherCatV1.10B1784,2013-06-03 07:13:00,
2013-06-03 08:23:00,52.5,46.2,30.48,ESE,112,0.0,0.0,79,0.00,,,0.00,WeatherCatV1.10B1784,2013-06-03 07:23:00,
2013-06-03 08:33:00,53.4,46.8,30.48,ESE,112,0.0,0.0,78,0.00,,,0.00,WeatherCatV1.10B1784,2013-06-03 07:33:00,
2013-06-03 08:43:00,54.0,46.9,30.48,SE,135,0.0,1.3,77,0.00,,,0.00,WeatherCatV1.10B1784,2013-06-03 07:43:00,
2013-06-03 08:53:00,55.2,47.7,30.48,SE,135,0.0,0.0,76,0.00,,,0.00,WeatherCatV1.10B1784,2013-06-03 07:53:00,
2013-06-03 09:03:00,55.8,47.9,30.48,SE,135,0.0,0.0,75,0.00,,,0.00,WeatherCatV1.10B1784,2013-06-03 08:03:00,
2013-06-03 09:13:00,55.6,47.4,30.48,North,0,0.0,0.0,74,0.00,,,0.00,WeatherCatV1.10B1784,2013-06-03 08:13:00,
2013-06-03 09:23:00,55.8,47.6,30.48,North,0,0.0,0.0,74,0.00,,,0.00,WeatherCatV1.10B1784,2013-06-03 08:23:00,
2013-06-03 09:33:00,56.8,48.9,30.47,NNW,337,0.0,0.0,75,0.00,,,0.00,WeatherCatV1.10B1784,2013-06-03 08:33:00,
2013-06-03 09:43:00,58.8,50.2,30.47,NNW,337,0.0,1.6,73,0.00,,,0.00,WeatherCatV1.10B1784,2013-06-03 08:43:00,
2013-06-03 09:53:00,59.5,50.5,30.47,NW,315,0.0,1.6,72,0.00,,,0.00,WeatherCatV1.10B1784,2013-06-03 08:53:00,
2013-06-03 10:03:00,61.3,51.9,30.47,NNW,337,0.0,0.0,71,0.00,,,0.00,WeatherCatV1.10B1784,2013-06-03 09:03:00,
2013-06-03 10:13:00,61.2,51.4,30.47,East,90,0.0,2.0,70,0.00,,,0.00,WeatherCatV1.10B1784,2013-06-03 09:13:00,
2013-06-03 10:23:00,61.2,51.4,30.47,SE,135,0.0,0.0,70,0.00,,,0.00,WeatherCatV1.10B1784,2013-06-03 09:23:00,
2013-06-03 10:33:00,62.2,52.0,30.47,NNW,337,0.0,2.2,69,0.00,,,0.00,WeatherCatV1.10B1784,2013-06-03 09:33:00,
2013-06-03 10:43:00,61.3,51.2,30.47,NE,45,0.0,3.4,69,0.00,,,0.00,WeatherCatV1.10B1784,2013-06-03 09:43:00,
2013-06-03 10:53:00,60.6,50.9,30.47,NNE,22,0.0,0.9,70,0.00,,,0.00,WeatherCatV1.10B1784,2013-06-03 09:53:00,
2013-06-03 11:03:00,60.1,50.7,30.47,North,0,0.0,2.2,71,0.00,,,0.00,WeatherCatV1.10B1784,2013-06-03 10:03:00,
2013-06-03 11:13:00,60.4,51.1,30.48,NNW,337,0.0,2.0,71,0.00,,,0.00,WeatherCatV1.10B1784,2013-06-03 10:13:00,
2013-06-03 11:23:00,60.6,51.3,30.48,NNE,22,0.0,0.0,71,0.00,,,0.00,WeatherCatV1.10B1784,2013-06-03 10:23:00,
2013-06-03 11:33:00,60.6,51.4,30.48,NNE,22,0.0,0.0,72,0.00,,,0.00,WeatherCatV1.10B1784,2013-06-03 10:33:00,
2013-06-03 11:43:00,61.3,52.3,30.48,SE,135,0.0,1.8,72,0.00,,,0.00,WeatherCatV1.10B1784,2013-06-03 10:43:00,
2013-06-03 11:53:00,61.5,52.1,30.48,SW,225,0.0,0.0,71,0.00,,,0.00,WeatherCatV1.10B1784,2013-06-03 10:53:00,
2013-06-03 12:03:00,61.3,51.9,30.48,SSE,157,0.0,0.0,71,0.00,,,0.00,WeatherCatV1.10B1784,2013-06-03 11:03:00,
2013-06-03 12:13:00,61.3,52.3,30.48,WSW,247,0.0,0.0,72,0.00,,,0.00,WeatherCatV1.10B1784,2013-06-03 11:13:00,
2013-06-03 12:23:00,62.1,52.6,30.48,SSE,157,1.6,1.6,71,0.00,,,0.00,WeatherCatV1.10B1784,2013-06-03 11:23:00,
2013-06-03 12:33:00,62.4,52.9,30.48,SE,135,0.0,1.1,71,0.00,,,0.00,WeatherCatV1.10B1784,2013-06-03 11:33:00,
2013-06-03 12:43:00,62.8,53.2,30.48,SSE,157,1.8,2.2,71,0.00,,,0.00,WeatherCatV1.10B1784,2013-06-03 11:43:00,
2013-06-03 12:53:00,62.8,53.2,30.48,SSE,157,0.0,2.2,71,0.00,,,0.00,WeatherCatV1.10B1784,2013-06-03 11:53:00,
2013-06-03 13:03:00,63.3,54.0,30.48,NNE,22,0.0,0.9,72,0.00,,,0.00,WeatherCatV1.10B1784,2013-06-03 12:03:00,
2013-06-03 13:13:00,65.1,55.1,30.48,SSE,157,0.0,1.3,70,0.00,,,0.00,WeatherCatV1.10B1784,2013-06-03 12:13:00,
2013-06-03 13:23:00,66.0,54.7,30.48,NNE,22,0.0,1.8,67,0.00,,,0.00,WeatherCatV1.10B1784,2013-06-03 12:23:00,
2013-06-03 13:33:00,66.2,54.9,30.48,North,0,0.0,0.0,67,0.00,,,0.00,WeatherCatV1.10B1784,2013-06-03 12:33:00,
2013-06-03 13:43:00,66.7,55.0,30.48,SE,135,0.0,1.6,66,0.00,,,0.00,WeatherCatV1.10B1784,2013-06-03 12:43:00,
2013-06-03 13:53:00,67.8,55.1,30.47,WNW,292,0.0,1.3,64,0.00,,,0.00,WeatherCatV1.10B1784,2013-06-03 12:53:00,
2013-06-03 14:03:00,68.9,55.8,30.47,NE,45,1.8,2.5,63,0.00,,,0.00,WeatherCatV1.10B1784,2013-06-03 13:03:00,
2013-06-03 14:13:00,70.2,56.7,30.47,SE,135,0.0,2.2,62,0.00,,,0.00,WeatherCatV1.10B1784,2013-06-03 13:13:00,
2013-06-03 14:23:00,71.4,55.8,30.47,SE,135,1.3,5.8,58,0.00,,,0.00,WeatherCatV1.10B1784,2013-06-03 13:23:00,
2013-06-03 14:33:00,70.7,55.2,30.47,SE,135,1.3,3.1,58,0.00,,,0.00,WeatherCatV1.10B1784,2013-06-03 13:33:00,
2013-06-03 14:43:00,70.3,54.9,30.46,NNE,22,0.0,2.0,58,0.00,,,0.00,WeatherCatV1.10B1784,2013-06-03 13:43:00,
2013-06-03 14:53:00,70.3,54.9,30.46,SSE,157,1.3,2.9,58,0.00,,,0.00,WeatherCatV1.10B1784,2013-06-03 13:53:00,
2013-06-03 15:03:00,70.5,55.0,30.46,NNE,22,0.0,0.0,58,0.00,,,0.00,WeatherCatV1.10B1784,2013-06-03 14:03:00,
2013-06-03 15:13:00,70.7,54.2,30.46,WSW,247,0.0,1.1,56,0.00,,,0.00,WeatherCatV1.10B1784,2013-06-03 14:13:00,
2013-06-03 15:23:00,69.6,53.7,30.46,SSE,157,0.0,1.3,57,0.00,,,0.00,WeatherCatV1.10B1784,2013-06-03 14:23:00,
2013-06-03 15:33:00,68.5,53.6,30.46,East,90,0.0,0.0,59,0.00,,,0.00,WeatherCatV1.10B1784,2013-06-03 14:33:00,
2013-06-03 15:43:00,67.8,53.0,30.45,North,0,0.0,0.0,59,0.00,,,0.00,WeatherCatV1.10B1784,2013-06-03 14:43:00,
2013-06-03 15:53:00,67.1,52.8,30.46,NE,45,0.0,0.0,60,0.00,,,0.00,WeatherCatV1.10B1784,2013-06-03 14:53:00,
2013-06-03 16:03:00,66.9,53.0,30.45,NE,45,0.0,0.0,61,0.00,,,0.00,WeatherCatV1.10B1784,2013-06-03 15:03:00,
2013-06-03 16:13:00,66.6,52.7,30.46,South,180,0.0,0.0,61,0.00,,,0.00,WeatherCatV1.10B1784,2013-06-03 15:13:00,
2013-06-03 16:23:00,66.7,53.3,30.45,SSE,157,0.0,0.0,62,0.00,,,0.00,WeatherCatV1.10B1784,2013-06-03 15:23:00,
2013-06-03 16:33:00,66.9,53.5,30.45,SSE,157,0.0,0.7,62,0.00,,,0.00,WeatherCatV1.10B1784,2013-06-03 15:33:00,
2013-06-03 16:43:00,67.8,53.9,30.45,North,0,0.0,0.0,61,0.00,,,0.00,WeatherCatV1.10B1784,2013-06-03 15:43:00,
2013-06-03 16:53:00,68.5,54.1,30.44,NNW,337,0.0,0.0,60,0.00,,,0.00,WeatherCatV1.10B1784,2013-06-03 15:53:00,
2013-06-03 17:03:00,69.1,54.2,30.44,SE,135,0.0,1.3,59,0.00,,,0.00,WeatherCatV1.10B1784,2013-06-03 16:03:00,
2013-06-03 17:13:00,70.0,54.6,30.44,SSE,157,0.0,1.6,58,0.00,,,0.00,WeatherCatV1.10B1784,2013-06-03 16:13:00,
2013-06-03 17:23:00,70.3,54.9,30.44,SSE,157,0.0,1.3,58,0.00,,,0.00,WeatherCatV1.10B1784,2013-06-03 16:23:00,
2013-06-03 17:33:00,70.3,54.4,30.44,SSE,157,0.0,1.6,57,0.00,,,0.00,WeatherCatV1.10B1784,2013-06-03 16:33:00,
2013-06-03 17:43:00,70.2,54.2,30.44,SSE,157,0.0,1.3,57,0.00,,,0.00,WeatherCatV1.10B1784,2013-06-03 16:43:00,
2013-06-03 17:53:00,69.6,53.7,30.43,West,270,0.0,0.0,57,0.00,,,0.00,WeatherCatV1.10B1784,2013-06-03 16:53:00,
2013-06-03 18:03:00,69.1,53.2,30.43,West,270,0.0,0.0,57,0.00,,,0.00,WeatherCatV1.10B1784,2013-06-03 17:03:00,
2013-06-03 18:13:00,68.7,53.3,30.43,West,270,0.0,0.0,58,0.00,,,0.00,WeatherCatV1.10B1784,2013-06-03 17:13:00,
2013-06-03 18:23:00,68.0,53.1,30.43,West,270,0.0,0.0,59,0.00,,,0.00,WeatherCatV1.10B1784,2013-06-03 17:23:00,
2013-06-03 18:33:00,67.3,53.0,30.43,WSW,247,0.0,0.0,60,0.00,,,0.00,WeatherCatV1.10B1784,2013-06-03 17:33:00,
2013-06-03 18:43:00,66.9,52.8,30.43,North,0,0.0,1.1,60,0.00,,,0.00,WeatherCatV1.10B1784,2013-06-03 17:43:00,
2013-06-03 18:53:00,66.9,53.0,30.43,ENE,67,0.0,0.0,61,0.00,,,0.00,WeatherCatV1.10B1784,2013-06-03 17:53:00,
2013-06-03 19:03:00,66.9,53.0,30.44,ENE,67,0.0,0.0,61,0.00,,,0.00,WeatherCatV1.10B1784,2013-06-03 18:03:00,
2013-06-03 19:13:00,66.9,53.0,30.44,East,90,0.0,0.0,61,0.00,,,0.00,WeatherCatV1.10B1784,2013-06-03 18:13:00,
2013-06-03 19:23:00,66.9,53.0,30.44,ESE,112,0.0,0.0,61,0.00,,,0.00,WeatherCatV1.10B1784,2013-06-03 18:23:00,
2013-06-03 19:33:00,67.3,53.4,30.44,ESE,112,0.0,0.0,61,0.00,,,0.00,WeatherCatV1.10B1784,2013-06-03 18:33:00,
2013-06-03 19:43:00,67.1,53.6,30.44,ESE,112,0.0,0.0,62,0.00,,,0.00,WeatherCatV1.10B1784,2013-06-03 18:43:00,
2013-06-03 19:53:00,66.7,53.3,30.44,SE,135,0.0,0.0,62,0.00,,,0.00,WeatherCatV1.10B1784,2013-06-03 18:53:00,
2013-06-03 20:03:00,66.0,53.0,30.44,SE,135,0.0,0.0,63,0.00,,,0.00,WeatherCatV1.10B1784,2013-06-03 19:03:00,
2013-06-03 20:13:00,65.8,53.3,30.44,ESE,112,0.0,0.0,64,0.00,,,0.00,WeatherCatV1.10B1784,2013-06-03 19:13:00,
2013-06-03 20:23:00,65.3,53.2,30.44,ESE,112,0.0,0.0,65,0.00,,,0.00,WeatherCatV1.10B1784,2013-06-03 19:23:00,
2013-06-03 20:33:00,64.9,53.3,30.44,East,90,0.0,0.0,66,0.00,,,0.00,WeatherCatV1.10B1784,2013-06-03 19:33:00,
2013-06-03 20:43:00,64.4,53.2,30.44,ENE,67,0.0,0.0,66,0.00,,,0.00,WeatherCatV1.10B1784,2013-06-03 19:43:00,
2013-06-03 20:53:00,64.0,53.3,30.44,ENE,67,0.0,0.0,68,0.00,,,0.00,WeatherCatV1.10B1784,2013-06-03 19:53:00,
2013-06-03 21:03:00,63.5,53.0,30.44,ENE,67,0.0,0.0,69,0.00,,,0.00,WeatherCatV1.10B1784,2013-06-03 20:03:00,
2013-06-03 21:13:00,63.0,53.1,30.45,North,0,0.0,0.0,70,0.00,,,0.00,WeatherCatV1.10B1784,2013-06-03 20:13:00,
2013-06-03 21:23:00,62.6,52.9,30.45,North,0,0.0,0.0,71,0.00,,,0.00,WeatherCatV1.10B1784,2013-06-03 20:23:00,
2013-06-03 21:33:00,61.9,52.4,30.45,North,0,0.0,0.0,71,0.00,,,0.00,WeatherCatV1.10B1784,2013-06-03 20:33:00,
2013-06-03 21:43:00,61.3,52.6,30.45,North,0,0.0,0.0,73,0.00,,,0.00,WeatherCatV1.10B1784,2013-06-03 20:43:00,
2013-06-03 21:53:00,60.6,52.3,30.45,NE,45,0.0,0.0,74,0.00,,,0.00,WeatherCatV1.10B1784,2013-06-03 20:53:00,
2013-06-03 22:03:00,60.1,52.3,30.45,SSE,157,0.0,0.0,75,0.00,,,0.00,WeatherCatV1.10B1784,2013-06-03 21:03:00,
2013-06-03 22:13:00,59.7,51.8,30.46,SSE,157,0.0,1.6,75,0.00,,,0.00,WeatherCatV1.10B1784,2013-06-03 21:13:00,
2013-06-03 22:23:00,59.2,51.3,30.45,SSE,157,0.0,1.3,75,0.00,,,0.00,WeatherCatV1.10B1784,2013-06-03 21:23:00,
2013-06-03 22:33:00,58.6,50.7,30.46,SSE,157,0.0,0.0,75,0.00,,,0.00,WeatherCatV1.10B1784,2013-06-03 21:33:00,
2013-06-03 22:43:00,58.1,50.9,30.46,SSE,157,0.0,0.0,77,0.00,,,0.00,WeatherCatV1.10B1784,2013-06-03 21:43:00,
2013-06-03 22:53:00,57.7,50.5,30.46,SSE,157,0.0,0.0,77,0.00,,,0.00,WeatherCatV1.10B1784,2013-06-03 21:53:00,
2013-06-03 23:03:00,57.6,50.7,30.47,SSE,157,0.0,0.0,78,0.00,,,0.00,WeatherCatV1.10B1784,2013-06-03 22:03:00,
2013-06-03 23:13:00,57.2,50.5,30.47,SSE,157,0.0,0.0,78,0.00,,,0.00,WeatherCatV1.10B1784,2013-06-03 22:13:00,
2013-06-03 23:23:00,56.7,49.8,30.47,SSE,157,0.0,0.0,78,0.00,,,0.00,WeatherCatV1.10B1784,2013-06-03 22:23:00,
2013-06-03 23:33:00,56.1,49.6,30.47,SSE,157,0.0,0.0,79,0.00,,,0.00,WeatherCatV1.10B1784,2013-06-03 22:33:00,
2013-06-03 23:43:00,55.8,49.1,30.47,SSE,157,0.0,0.0,79,0.00,,,0.00,WeatherCatV1.10B1784,2013-06-03 22:43:00,
2013-06-03 23:53:00,55.2,49.4,30.47,SSE,157,0.0,0.0,81,0.00,,,0.00,WeatherCatV1.10B1784,2013-06-03 22:53:00,